Sunday, October 22, 2017, 5:09 PM EDT
Back to Local

KFIG, Clearfield-lawrence Airport

Location: Clearfield, PA, United States Lat: 41.05
Local Time: 5:09 PM EDT (21:09 GMT) Lon: -78.417
Time Zone: US/Eastern Elev: 1515 ft

Show me the last for .
Show Decoded

2017-10-22 16:54 METAR KFIG 222054Z AUTO VRB05KT 10SM CLR 22/11 A3025 RMK AO2 SLP242 T02220106
                 56014 =
2017-10-22 15:54 METAR KFIG 221954Z AUTO VRB05KT 10SM CLR 22/11 A3027 RMK AO2 SLP250 T02170111 =
2017-10-22 15:42 METAR KFIG 221942Z AUTO VRB05KT 10SM FEW003 22/11 A3027 RMK AO2 T02170106 =
2017-10-22 14:54 METAR KFIG 221854Z AUTO 17006KT 10SM CLR 22/10 A3027 RMK AO2 SLP250 T02170100 =
2017-10-22 13:54 METAR KFIG 221754Z AUTO 18010G16KT 130V190 10SM CLR 23/09 A3029 RMK AO2 SLP256
                 T02280094 10233 20061 58019 =
2017-10-22 12:54 METAR KFIG 221654Z AUTO 12005KT 10SM CLR 23/11 A3032 RMK AO2 SLP265 T02280106 =
2017-10-22 11:54 METAR KFIG 221554Z AUTO 00000KT 10SM CLR 20/10 A3034 RMK AO2 SLP273 T02000100 =
2017-10-22 10:54 METAR KFIG 221454Z AUTO 01004KT 10SM CLR 17/08 A3035 RMK AO2 SLP278 T01670083
                 58002 =
2017-10-22 09:54 METAR KFIG 221354Z AUTO 03003KT 10SM CLR 13/08 A3037 RMK AO2 SLP285 T01280078 =
2017-10-22 08:54 METAR KFIG 221254Z AUTO 04003KT 10SM CLR 09/07 A3037 RMK AO2 SLP287 T00940067 =
2017-10-22 07:54 METAR KFIG 221154Z AUTO 01005KT 10SM CLR 06/06 A3036 RMK AO2 SLP284 T00610056
                 10083 20056 51007 =
2017-10-22 06:54 METAR KFIG 221054Z AUTO 00000KT 10SM CLR 07/06 A3036 RMK AO2 SLP282 T00670056 =
2017-10-22 05:54 METAR KFIG 220954Z AUTO 36004KT 10SM CLR 07/06 A3035 RMK AO2 SLP279 T00720061 =
2017-10-22 04:54 METAR KFIG 220854Z AUTO 05003KT 10SM CLR 07/06 A3034 RMK AO2 SLP272 T00720056
                 53003 =
2017-10-22 03:54 METAR KFIG 220754Z AUTO 01007KT 10SM CLR 07/06 A3032 RMK AO2 SLP265 T00720061 =
2017-10-22 02:54 METAR KFIG 220654Z AUTO 01006KT 10SM CLR 08/06 A3032 RMK AO2 SLP265 T00780061 =
2017-10-22 01:54 METAR KFIG 220554Z AUTO 02005KT 10SM CLR 09/06 A3033 RMK AO2 SLP268 T00890061
                 10167 20089 55006 =
2017-10-22 00:54 METAR KFIG 220454Z AUTO 01005KT 10SM CLR 09/07 A3032 RMK AO2 SLP268 T00890067
                 402280028 =
2017-10-21 23:54 METAR KFIG 220354Z AUTO 01005KT 10SM CLR 11/07 A3033 RMK AO2 SLP273 T01060067 =
2017-10-21 22:54 METAR KFIG 220254Z AUTO 36005KT 10SM CLR 11/07 A3034 RMK AO2 SLP278 T01110072
                 50002 =
2017-10-21 21:54 METAR KFIG 220154Z AUTO 36004KT 10SM CLR 12/07 A3034 RMK AO2 SLP279 T01220072 =
2017-10-21 20:54 METAR KFIG 220054Z AUTO 06003KT 10SM CLR 13/08 A3034 RMK AO2 SLP280 T01330078 =
2017-10-21 19:54 METAR KFIG 212354Z AUTO 00000KT 10SM CLR 16/07 A3034 RMK AO2 SLP278 T01560072
                 10228 20156 53008 =
2017-10-21 18:54 METAR KFIG 212254Z AUTO 11003KT 10SM CLR 18/06 A3032 RMK AO2 SLP272 T01830056 =
2017-10-21 17:54 METAR KFIG 212154Z AUTO 00000KT 10SM CLR 19/06 A3031 RMK AO2 SLP268 T01940061 =

Support USWX by starting your Amazon purchase here.